sensor_id;sensor_type;location;lat;lon;timestamp;P1;durP1;ratioP1;P2;durP2;ratioP2
60241;SDS011;46103;52.076;113.488;2022-12-18T00:00:28;49.50;;;20.02;;
60241;SDS011;46103;52.076;113.488;2022-12-18T00:03:33;54.22;;;25.13;;
60241;SDS011;46103;52.076;113.488;2022-12-18T00:06:41;58.30;;;27.70;;
60241;SDS011;46103;52.076;113.488;2022-12-18T00:09:46;64.07;;;28.27;;
60241;SDS011;46103;52.076;113.488;2022-12-18T00:12:49;58.28;;;26.30;;
60241;SDS011;46103;52.076;113.488;2022-12-18T00:15:53;76.18;;;36.33;;
60241;SDS011;46103;52.076;113.488;2022-12-18T00:18:57;86.28;;;34.25;;
60241;SDS011;46103;52.076;113.488;2022-12-18T00:22:02;103.15;;;34.15;;
60241;SDS011;46103;52.076;113.488;2022-12-18T00:25:06;90.05;;;28.55;;
60241;SDS011;46103;52.076;113.488;2022-12-18T00:28:10;96.47;;;33.53;;
60241;SDS011;46103;52.076;113.488;2022-12-18T00:31:15;83.00;;;34.42;;
60241;SDS011;46103;52.076;113.488;2022-12-18T00:34:21;87.50;;;36.07;;
60241;SDS011;46103;52.076;113.488;2022-12-18T00:37:26;115.07;;;34.28;;
60241;SDS011;46103;52.076;113.488;2022-12-18T00:40:30;90.70;;;33.40;;
60241;SDS011;46103;52.076;113.488;2022-12-18T00:43:37;76.20;;;29.67;;
60241;SDS011;46103;52.076;113.488;2022-12-18T00:46:43;83.28;;;33.50;;
60241;SDS011;46103;52.076;113.488;2022-12-18T00:49:48;78.50;;;33.72;;
60241;SDS011;46103;52.076;113.488;2022-12-18T00:52:53;101.80;;;35.08;;
60241;SDS011;46103;52.076;113.488;2022-12-18T00:56:04;81.68;;;31.67;;
60241;SDS011;46103;52.076;113.488;2022-12-18T00:59:08;100.20;;;32.70;;
60241;SDS011;46103;52.076;113.488;2022-12-18T01:02:13;87.53;;;34.17;;
60241;SDS011;46103;52.076;113.488;2022-12-18T01:05:16;91.63;;;36.55;;
60241;SDS011;46103;52.076;113.488;2022-12-18T01:08:20;95.13;;;37.65;;
60241;SDS011;46103;52.076;113.488;2022-12-18T01:11:24;92.30;;;36.17;;
60241;SDS011;46103;52.076;113.488;2022-12-18T01:14:30;131.75;;;37.67;;
60241;SDS011;46103;52.076;113.488;2022-12-18T01:17:34;127.03;;;39.53;;
60241;SDS011;46103;52.076;113.488;2022-12-18T01:20:37;100.38;;;35.70;;
60241;SDS011;46103;52.076;113.488;2022-12-18T01:23:41;130.43;;;38.88;;
60241;SDS011;46103;52.076;113.488;2022-12-18T01:26:48;86.67;;;37.83;;
60241;SDS011;46103;52.076;113.488;2022-12-18T01:29:52;96.55;;;36.60;;
60241;SDS011;46103;52.076;113.488;2022-12-18T01:32:56;99.28;;;36.22;;
60241;SDS011;46103;52.076;113.488;2022-12-18T01:36:00;104.65;;;35.78;;
60241;SDS011;46103;52.076;113.488;2022-12-18T01:39:08;121.88;;;35.03;;
60241;SDS011;46103;52.076;113.488;2022-12-18T01:42:16;77.15;;;34.67;;
60241;SDS011;46103;52.076;113.488;2022-12-18T01:45:23;87.93;;;35.65;;
60241;SDS011;46103;52.076;113.488;2022-12-18T01:48:30;101.75;;;36.90;;
60241;SDS011;46103;52.076;113.488;2022-12-18T01:51:34;86.97;;;36.05;;
60241;SDS011;46103;52.076;113.488;2022-12-18T01:54:38;111.78;;;38.10;;
60241;SDS011;46103;52.076;113.488;2022-12-18T01:57:42;82.80;;;33.13;;
60241;SDS011;46103;52.076;113.488;2022-12-18T02:00:46;87.90;;;33.95;;
60241;SDS011;46103;52.076;113.488;2022-12-18T02:03:49;119.13;;;37.42;;
60241;SDS011;46103;52.076;113.488;2022-12-18T02:10:16;190.15;;;55.25;;
60241;SDS011;46103;52.076;113.488;2022-12-18T02:23:52;226.95;;;87.32;;
60241;SDS011;46103;52.076;113.488;2022-12-18T02:27:00;246.00;;;86.72;;
60241;SDS011;46103;52.076;113.488;2022-12-18T02:30:07;195.82;;;76.07;;
60241;SDS011;46103;52.076;113.488;2022-12-18T02:33:12;222.38;;;82.47;;
60241;SDS011;46103;52.076;113.488;2022-12-18T02:36:17;242.32;;;83.28;;
60241;SDS011;46103;52.076;113.488;2022-12-18T02:39:27;229.95;;;82.00;;
60241;SDS011;46103;52.076;113.488;2022-12-18T02:42:37;216.90;;;70.10;;
60241;SDS011;46103;52.076;113.488;2022-12-18T02:45:47;99.13;;;41.70;;
60241;SDS011;46103;52.076;113.488;2022-12-18T02:52:41;179.70;;;63.92;;
60241;SDS011;46103;52.076;113.488;2022-12-18T02:59:47;119.47;;;47.35;;
60241;SDS011;46103;52.076;113.488;2022-12-18T03:03:04;81.07;;;39.50;;
60241;SDS011;46103;52.076;113.488;2022-12-18T03:06:29;114.40;;;42.33;;
60241;SDS011;46103;52.076;113.488;2022-12-18T03:09:37;134.73;;;44.67;;
60241;SDS011;46103;52.076;113.488;2022-12-18T03:12:45;104.45;;;42.70;;
60241;SDS011;46103;52.076;113.488;2022-12-18T03:15:55;129.75;;;50.13;;
60241;SDS011;46103;52.076;113.488;2022-12-18T03:19:02;125.07;;;49.30;;
60241;SDS011;46103;52.076;113.488;2022-12-18T03:22:15;115.65;;;44.97;;
60241;SDS011;46103;52.076;113.488;2022-12-18T03:25:24;100.20;;;44.28;;
60241;SDS011;46103;52.076;113.488;2022-12-18T03:28:30;141.68;;;52.30;;
60241;SDS011;46103;52.076;113.488;2022-12-18T03:31:39;162.23;;;53.42;;
60241;SDS011;46103;52.076;113.488;2022-12-18T03:34:45;149.57;;;54.20;;
60241;SDS011;46103;52.076;113.488;2022-12-18T03:37:55;132.88;;;49.88;;
60241;SDS011;46103;52.076;113.488;2022-12-18T03:51:13;98.78;;;33.95;;
60241;SDS011;46103;52.076;113.488;2022-12-18T03:54:39;110.32;;;41.25;;
60241;SDS011;46103;52.076;113.488;2022-12-18T03:57:48;119.20;;;41.50;;
60241;SDS011;46103;52.076;113.488;2022-12-18T04:00:54;118.70;;;44.08;;
60241;SDS011;46103;52.076;113.488;2022-12-18T04:04:03;100.45;;;37.00;;
60241;SDS011;46103;52.076;113.488;2022-12-18T04:07:12;119.75;;;41.08;;
60241;SDS011;46103;52.076;113.488;2022-12-18T04:10:18;93.97;;;37.67;;
60241;SDS011;46103;52.076;113.488;2022-12-18T04:13:29;135.77;;;41.63;;
60241;SDS011;46103;52.076;113.488;2022-12-18T04:16:38;106.25;;;40.55;;
60241;SDS011;46103;52.076;113.488;2022-12-18T04:19:45;94.90;;;38.40;;
60241;SDS011;46103;52.076;113.488;2022-12-18T04:22:49;100.03;;;36.35;;
60241;SDS011;46103;52.076;113.488;2022-12-18T04:25:54;127.93;;;40.78;;
60241;SDS011;46103;52.076;113.488;2022-12-18T04:29:14;92.03;;;36.63;;
60241;SDS011;46103;52.076;113.488;2022-12-18T04:32:17;98.57;;;36.92;;
60241;SDS011;46103;52.076;113.488;2022-12-18T04:35:22;84.68;;;34.70;;
60241;SDS011;46103;52.076;113.488;2022-12-18T04:38:25;111.07;;;34.75;;
60241;SDS011;46103;52.076;113.488;2022-12-18T04:41:37;85.55;;;34.70;;
60241;SDS011;46103;52.076;113.488;2022-12-18T04:44:41;103.68;;;37.05;;
60241;SDS011;46103;52.076;113.488;2022-12-18T04:47:43;91.82;;;33.53;;
60241;SDS011;46103;52.076;113.488;2022-12-18T04:50:47;116.25;;;37.08;;
60241;SDS011;46103;52.076;113.488;2022-12-18T04:53:51;106.95;;;39.00;;
60241;SDS011;46103;52.076;113.488;2022-12-18T04:56:54;111.93;;;36.20;;
60241;SDS011;46103;52.076;113.488;2022-12-18T04:59:58;91.03;;;33.40;;
60241;SDS011;46103;52.076;113.488;2022-12-18T05:03:01;85.47;;;28.05;;
60241;SDS011;46103;52.076;113.488;2022-12-18T05:06:05;88.78;;;30.75;;
60241;SDS011;46103;52.076;113.488;2022-12-18T05:09:09;96.40;;;32.20;;
60241;SDS011;46103;52.076;113.488;2022-12-18T05:12:12;105.32;;;36.65;;
60241;SDS011;46103;52.076;113.488;2022-12-18T05:15:15;99.22;;;35.67;;
60241;SDS011;46103;52.076;113.488;2022-12-18T05:18:19;99.68;;;34.42;;
60241;SDS011;46103;52.076;113.488;2022-12-18T05:21:23;85.82;;;30.25;;
60241;SDS011;46103;52.076;113.488;2022-12-18T05:24:26;92.57;;;35.78;;
60241;SDS011;46103;52.076;113.488;2022-12-18T05:27:32;113.93;;;38.35;;
60241;SDS011;46103;52.076;113.488;2022-12-18T05:30:35;104.03;;;38.95;;
60241;SDS011;46103;52.076;113.488;2022-12-18T05:33:38;119.13;;;41.47;;
60241;SDS011;46103;52.076;113.488;2022-12-18T05:36:43;111.70;;;38.00;;
60241;SDS011;46103;52.076;113.488;2022-12-18T05:39:47;104.07;;;36.13;;
60241;SDS011;46103;52.076;113.488;2022-12-18T05:42:50;120.35;;;38.05;;
60241;SDS011;46103;52.076;113.488;2022-12-18T05:45:54;103.55;;;36.65;;
60241;SDS011;46103;52.076;113.488;2022-12-18T05:48:59;81.40;;;32.25;;
60241;SDS011;46103;52.076;113.488;2022-12-18T05:52:05;109.63;;;38.67;;
60241;SDS011;46103;52.076;113.488;2022-12-18T05:55:08;98.30;;;35.10;;
60241;SDS011;46103;52.076;113.488;2022-12-18T05:58:12;120.32;;;40.75;;
60241;SDS011;46103;52.076;113.488;2022-12-18T06:01:24;115.43;;;40.15;;
60241;SDS011;46103;52.076;113.488;2022-12-18T06:04:28;91.50;;;37.50;;
60241;SDS011;46103;52.076;113.488;2022-12-18T06:07:32;115.57;;;37.40;;
60241;SDS011;46103;52.076;113.488;2022-12-18T06:10:35;114.68;;;38.40;;
60241;SDS011;46103;52.076;113.488;2022-12-18T06:13:38;105.40;;;32.63;;
60241;SDS011;46103;52.076;113.488;2022-12-18T06:16:42;96.55;;;33.10;;
60241;SDS011;46103;52.076;113.488;2022-12-18T06:19:46;93.35;;;32.95;;
60241;SDS011;46103;52.076;113.488;2022-12-18T06:22:49;83.78;;;31.92;;
60241;SDS011;46103;52.076;113.488;2022-12-18T06:25:54;86.22;;;30.52;;
60241;SDS011;46103;52.076;113.488;2022-12-18T06:28:58;80.70;;;28.35;;
60241;SDS011;46103;52.076;113.488;2022-12-18T06:32:03;85.20;;;26.92;;
60241;SDS011;46103;52.076;113.488;2022-12-18T06:35:08;81.50;;;28.80;;
60241;SDS011;46103;52.076;113.488;2022-12-18T06:38:13;84.10;;;26.55;;
60241;SDS011;46103;52.076;113.488;2022-12-18T06:41:17;89.90;;;29.85;;
60241;SDS011;46103;52.076;113.488;2022-12-18T06:44:23;91.35;;;29.67;;
60241;SDS011;46103;52.076;113.488;2022-12-18T06:47:26;90.30;;;32.28;;
60241;SDS011;46103;52.076;113.488;2022-12-18T06:50:29;95.32;;;33.97;;
60241;SDS011;46103;52.076;113.488;2022-12-18T06:53:32;85.90;;;31.35;;
60241;SDS011;46103;52.076;113.488;2022-12-18T06:56:36;83.20;;;26.00;;
60241;SDS011;46103;52.076;113.488;2022-12-18T06:59:39;85.22;;;28.98;;
60241;SDS011;46103;52.076;113.488;2022-12-18T07:02:43;83.10;;;30.40;;
60241;SDS011;46103;52.076;113.488;2022-12-18T07:05:47;78.20;;;26.13;;
60241;SDS011;46103;52.076;113.488;2022-12-18T07:08:50;69.10;;;23.13;;
60241;SDS011;46103;52.076;113.488;2022-12-18T07:11:55;62.33;;;22.50;;
60241;SDS011;46103;52.076;113.488;2022-12-18T07:14:59;68.55;;;23.83;;
60241;SDS011;46103;52.076;113.488;2022-12-18T07:18:02;65.22;;;23.42;;
60241;SDS011;46103;52.076;113.488;2022-12-18T07:21:06;61.15;;;22.25;;
60241;SDS011;46103;52.076;113.488;2022-12-18T07:24:10;53.45;;;20.95;;
60241;SDS011;46103;52.076;113.488;2022-12-18T07:27:14;52.90;;;19.90;;
60241;SDS011;46103;52.076;113.488;2022-12-18T07:30:18;60.63;;;20.10;;
60241;SDS011;46103;52.076;113.488;2022-12-18T07:33:22;58.60;;;20.70;;
60241;SDS011;46103;52.076;113.488;2022-12-18T07:36:25;71.90;;;22.60;;
60241;SDS011;46103;52.076;113.488;2022-12-18T07:39:29;68.40;;;24.85;;
60241;SDS011;46103;52.076;113.488;2022-12-18T07:42:32;80.60;;;27.00;;
60241;SDS011;46103;52.076;113.488;2022-12-18T07:45:37;58.60;;;21.10;;
60241;SDS011;46103;52.076;113.488;2022-12-18T07:48:41;59.42;;;24.05;;
60241;SDS011;46103;52.076;113.488;2022-12-18T07:51:49;76.10;;;28.13;;
60241;SDS011;46103;52.076;113.488;2022-12-18T07:54:52;70.93;;;25.27;;
60241;SDS011;46103;52.076;113.488;2022-12-18T07:57:56;65.47;;;26.55;;
60241;SDS011;46103;52.076;113.488;2022-12-18T08:01:03;82.47;;;32.03;;
60241;SDS011;46103;52.076;113.488;2022-12-18T08:04:13;98.57;;;31.08;;
60241;SDS011;46103;52.076;113.488;2022-12-18T08:07:16;70.80;;;27.67;;
60241;SDS011;46103;52.076;113.488;2022-12-18T08:10:20;66.88;;;28.15;;
60241;SDS011;46103;52.076;113.488;2022-12-18T08:13:23;98.15;;;34.60;;
60241;SDS011;46103;52.076;113.488;2022-12-18T08:16:27;61.58;;;28.13;;
60241;SDS011;46103;52.076;113.488;2022-12-18T08:19:31;79.13;;;31.83;;
60241;SDS011;46103;52.076;113.488;2022-12-18T08:22:35;79.68;;;32.55;;
60241;SDS011;46103;52.076;113.488;2022-12-18T08:25:39;72.28;;;28.15;;
60241;SDS011;46103;52.076;113.488;2022-12-18T08:28:43;87.35;;;31.42;;
60241;SDS011;46103;52.076;113.488;2022-12-18T08:31:47;77.70;;;32.35;;
60241;SDS011;46103;52.076;113.488;2022-12-18T08:34:50;70.20;;;27.08;;
60241;SDS011;46103;52.076;113.488;2022-12-18T08:37:54;79.18;;;25.52;;
60241;SDS011;46103;52.076;113.488;2022-12-18T08:41:07;60.50;;;25.30;;
60241;SDS011;46103;52.076;113.488;2022-12-18T08:44:13;72.93;;;27.02;;
60241;SDS011;46103;52.076;113.488;2022-12-18T08:47:36;61.28;;;25.48;;
60241;SDS011;46103;52.076;113.488;2022-12-18T08:50:39;56.90;;;25.98;;
60241;SDS011;46103;52.076;113.488;2022-12-18T08:53:43;64.60;;;24.02;;
60241;SDS011;46103;52.076;113.488;2022-12-18T08:56:47;65.40;;;22.00;;
60241;SDS011;46103;52.076;113.488;2022-12-18T08:59:50;35.88;;;16.17;;
60241;SDS011;46103;52.076;113.488;2022-12-18T09:02:53;68.32;;;23.67;;
60241;SDS011;46103;52.076;113.488;2022-12-18T09:05:56;67.32;;;27.55;;
60241;SDS011;46103;52.076;113.488;2022-12-18T09:09:00;37.35;;;22.00;;
60241;SDS011;46103;52.076;113.488;2022-12-18T09:12:04;47.80;;;17.30;;
60241;SDS011;46103;52.076;113.488;2022-12-18T09:15:07;34.95;;;16.00;;
60241;SDS011;46103;52.076;113.488;2022-12-18T09:18:11;63.08;;;23.73;;
60241;SDS011;46103;52.076;113.488;2022-12-18T09:21:17;49.08;;;22.08;;
60241;SDS011;46103;52.076;113.488;2022-12-18T09:24:22;55.85;;;23.45;;
60241;SDS011;46103;52.076;113.488;2022-12-18T09:27:25;51.53;;;19.25;;
60241;SDS011;46103;52.076;113.488;2022-12-18T09:30:29;70.05;;;24.70;;
60241;SDS011;46103;52.076;113.488;2022-12-18T09:33:33;59.90;;;20.15;;
60241;SDS011;46103;52.076;113.488;2022-12-18T09:36:39;42.67;;;20.30;;
60241;SDS011;46103;52.076;113.488;2022-12-18T09:39:45;31.48;;;17.15;;
60241;SDS011;46103;52.076;113.488;2022-12-18T09:42:51;76.15;;;22.92;;
60241;SDS011;46103;52.076;113.488;2022-12-18T09:45:59;80.15;;;25.85;;
60241;SDS011;46103;52.076;113.488;2022-12-18T09:49:10;67.03;;;27.17;;
60241;SDS011;46103;52.076;113.488;2022-12-18T09:52:27;30.65;;;15.35;;
60241;SDS011;46103;52.076;113.488;2022-12-18T09:55:38;59.90;;;18.67;;
60241;SDS011;46103;52.076;113.488;2022-12-18T09:58:55;33.28;;;17.50;;
60241;SDS011;46103;52.076;113.488;2022-12-18T10:02:18;49.22;;;21.33;;
60241;SDS011;46103;52.076;113.488;2022-12-18T10:05:41;57.00;;;20.38;;
60241;SDS011;46103;52.076;113.488;2022-12-18T10:08:59;42.00;;;19.40;;
60241;SDS011;46103;52.076;113.488;2022-12-18T10:15:38;40.72;;;19.05;;
60241;SDS011;46103;52.076;113.488;2022-12-18T10:18:55;42.97;;;14.90;;
60241;SDS011;46103;52.076;113.488;2022-12-18T10:22:28;41.97;;;18.83;;
60241;SDS011;46103;52.076;113.488;2022-12-18T10:28:48;41.03;;;16.50;;
60241;SDS011;46103;52.076;113.488;2022-12-18T10:31:53;38.70;;;16.20;;
60241;SDS011;46103;52.076;113.488;2022-12-18T10:34:57;14.23;;;10.25;;
60241;SDS011;46103;52.076;113.488;2022-12-18T10:44:23;29.73;;;12.90;;
60241;SDS011;46103;52.076;113.488;2022-12-18T10:47:30;39.17;;;12.00;;
60241;SDS011;46103;52.076;113.488;2022-12-18T10:50:37;20.25;;;11.77;;
60241;SDS011;46103;52.076;113.488;2022-12-18T10:54:02;38.78;;;12.25;;
60241;SDS011;46103;52.076;113.488;2022-12-18T10:57:16;40.70;;;12.80;;
60241;SDS011;46103;52.076;113.488;2022-12-18T11:00:30;34.47;;;14.95;;
60241;SDS011;46103;52.076;113.488;2022-12-18T11:03:39;32.45;;;14.52;;
60241;SDS011;46103;52.076;113.488;2022-12-18T11:10:15;28.17;;;12.27;;
60241;SDS011;46103;52.076;113.488;2022-12-18T11:13:22;31.50;;;13.48;;
60241;SDS011;46103;52.076;113.488;2022-12-18T11:16:29;19.00;;;9.20;;
60241;SDS011;46103;52.076;113.488;2022-12-18T11:19:39;27.02;;;12.65;;
60241;SDS011;46103;52.076;113.488;2022-12-18T11:22:44;30.85;;;14.50;;
60241;SDS011;46103;52.076;113.488;2022-12-18T11:26:03;30.20;;;11.35;;
60241;SDS011;46103;52.076;113.488;2022-12-18T11:29:09;26.27;;;14.17;;
60241;SDS011;46103;52.076;113.488;2022-12-18T11:39:02;24.75;;;12.98;;
60241;SDS011;46103;52.076;113.488;2022-12-18T11:42:27;41.22;;;19.10;;
60241;SDS011;46103;52.076;113.488;2022-12-18T11:46:13;58.90;;;23.08;;
60241;SDS011;46103;52.076;113.488;2022-12-18T11:49:28;69.03;;;25.48;;
60241;SDS011;46103;52.076;113.488;2022-12-18T11:52:39;93.75;;;36.38;;
60241;SDS011;46103;52.076;113.488;2022-12-18T12:12:58;91.68;;;39.42;;
60241;SDS011;46103;52.076;113.488;2022-12-18T12:16:28;143.25;;;59.45;;
60241;SDS011;46103;52.076;113.488;2022-12-18T12:23:40;106.35;;;48.60;;
60241;SDS011;46103;52.076;113.488;2022-12-18T12:26:57;91.85;;;47.05;;
60241;SDS011;46103;52.076;113.488;2022-12-18T12:30:53;140.93;;;56.85;;
60241;SDS011;46103;52.076;113.488;2022-12-18T12:34:26;152.75;;;63.00;;
60241;SDS011;46103;52.076;113.488;2022-12-18T12:41:17;179.00;;;64.38;;
60241;SDS011;46103;52.076;113.488;2022-12-18T12:44:50;165.65;;;75.82;;
60241;SDS011;46103;52.076;113.488;2022-12-18T12:47:58;146.25;;;63.83;;
60241;SDS011;46103;52.076;113.488;2022-12-18T12:51:12;137.93;;;66.72;;
60241;SDS011;46103;52.076;113.488;2022-12-18T12:54:26;120.28;;;46.72;;
60241;SDS011;46103;52.076;113.488;2022-12-18T12:57:33;197.68;;;90.57;;
60241;SDS011;46103;52.076;113.488;2022-12-18T13:00:52;135.25;;;59.00;;
60241;SDS011;46103;52.076;113.488;2022-12-18T13:07:32;66.32;;;30.52;;
60241;SDS011;46103;52.076;113.488;2022-12-18T13:10:43;102.90;;;45.50;;
60241;SDS011;46103;52.076;113.488;2022-12-18T13:13:49;93.95;;;42.65;;
60241;SDS011;46103;52.076;113.488;2022-12-18T13:20:35;71.95;;;37.60;;
60241;SDS011;46103;52.076;113.488;2022-12-18T13:23:40;142.65;;;58.22;;
60241;SDS011;46103;52.076;113.488;2022-12-18T13:26:45;137.45;;;52.85;;
60241;SDS011;46103;52.076;113.488;2022-12-18T13:29:49;124.30;;;55.20;;
60241;SDS011;46103;52.076;113.488;2022-12-18T13:39:32;153.00;;;53.33;;
60241;SDS011;46103;52.076;113.488;2022-12-18T13:42:38;164.10;;;64.07;;
60241;SDS011;46103;52.076;113.488;2022-12-18T13:46:02;141.93;;;59.05;;
60241;SDS011;46103;52.076;113.488;2022-12-18T13:52:19;183.48;;;70.03;;
60241;SDS011;46103;52.076;113.488;2022-12-18T13:55:25;187.63;;;73.45;;
60241;SDS011;46103;52.076;113.488;2022-12-18T13:58:29;189.90;;;79.85;;
60241;SDS011;46103;52.076;113.488;2022-12-18T14:01:33;156.70;;;61.78;;
60241;SDS011;46103;52.076;113.488;2022-12-18T14:04:38;199.27;;;67.35;;
60241;SDS011;46103;52.076;113.488;2022-12-18T14:07:48;148.23;;;57.35;;
60241;SDS011;46103;52.076;113.488;2022-12-18T14:10:59;168.90;;;66.45;;
60241;SDS011;46103;52.076;113.488;2022-12-18T14:14:09;126.43;;;50.13;;
60241;SDS011;46103;52.076;113.488;2022-12-18T14:20:39;140.10;;;55.80;;
60241;SDS011;46103;52.076;113.488;2022-12-18T14:24:18;181.25;;;74.43;;
60241;SDS011;46103;52.076;113.488;2022-12-18T14:27:27;266.75;;;91.50;;
60241;SDS011;46103;52.076;113.488;2022-12-18T14:30:43;244.32;;;83.85;;
60241;SDS011;46103;52.076;113.488;2022-12-18T14:33:52;230.38;;;88.55;;
60241;SDS011;46103;52.076;113.488;2022-12-18T14:37:00;222.05;;;82.35;;
60241;SDS011;46103;52.076;113.488;2022-12-18T14:40:14;214.80;;;76.43;;
60241;SDS011;46103;52.076;113.488;2022-12-18T14:43:17;260.42;;;83.82;;
60241;SDS011;46103;52.076;113.488;2022-12-18T14:46:35;236.02;;;76.95;;
60241;SDS011;46103;52.076;113.488;2022-12-18T14:49:45;152.68;;;57.30;;
60241;SDS011;46103;52.076;113.488;2022-12-18T14:52:58;214.88;;;73.93;;
60241;SDS011;46103;52.076;113.488;2022-12-18T14:56:19;195.85;;;80.70;;
60241;SDS011;46103;52.076;113.488;2022-12-18T14:59:33;163.68;;;62.05;;
60241;SDS011;46103;52.076;113.488;2022-12-18T15:02:44;158.45;;;69.25;;
60241;SDS011;46103;52.076;113.488;2022-12-18T15:13:20;270.45;;;90.20;;
60241;SDS011;46103;52.076;113.488;2022-12-18T15:16:31;180.70;;;69.65;;
60241;SDS011;46103;52.076;113.488;2022-12-18T15:19:48;210.48;;;85.00;;
60241;SDS011;46103;52.076;113.488;2022-12-18T15:22:58;186.80;;;73.80;;
60241;SDS011;46103;52.076;113.488;2022-12-18T15:26:13;203.65;;;80.50;;
60241;SDS011;46103;52.076;113.488;2022-12-18T15:29:22;181.68;;;72.30;;
60241;SDS011;46103;52.076;113.488;2022-12-18T15:32:36;218.25;;;81.40;;
60241;SDS011;46103;52.076;113.488;2022-12-18T15:35:58;178.30;;;61.92;;
60241;SDS011;46103;52.076;113.488;2022-12-18T15:39:13;180.65;;;69.57;;
60241;SDS011;46103;52.076;113.488;2022-12-18T15:42:17;210.18;;;79.35;;
60241;SDS011;46103;52.076;113.488;2022-12-18T15:45:49;126.30;;;54.25;;
60241;SDS011;46103;52.076;113.488;2022-12-18T15:49:01;140.45;;;54.10;;
60241;SDS011;46103;52.076;113.488;2022-12-18T15:52:10;171.63;;;66.80;;
60241;SDS011;46103;52.076;113.488;2022-12-18T15:55:20;193.90;;;74.97;;
60241;SDS011;46103;52.076;113.488;2022-12-18T15:58:44;186.35;;;66.63;;
60241;SDS011;46103;52.076;113.488;2022-12-18T16:01:50;183.95;;;80.75;;
60241;SDS011;46103;52.076;113.488;2022-12-18T16:04:58;170.32;;;72.22;;
60241;SDS011;46103;52.076;113.488;2022-12-18T16:08:03;170.48;;;69.88;;
60241;SDS011;46103;52.076;113.488;2022-12-18T16:11:20;172.25;;;70.03;;
60241;SDS011;46103;52.076;113.488;2022-12-18T16:14:40;242.73;;;88.75;;
60241;SDS011;46103;52.076;113.488;2022-12-18T16:17:45;281.00;;;103.80;;
60241;SDS011;46103;52.076;113.488;2022-12-18T16:20:50;247.32;;;91.35;;
60241;SDS011;46103;52.076;113.488;2022-12-18T16:23:54;191.55;;;82.40;;
60241;SDS011;46103;52.076;113.488;2022-12-18T16:26:59;202.63;;;73.50;;
60241;SDS011;46103;52.076;113.488;2022-12-18T16:30:05;186.95;;;78.18;;
60241;SDS011;46103;52.076;113.488;2022-12-18T16:33:19;164.15;;;62.47;;
60241;SDS011;46103;52.076;113.488;2022-12-18T16:36:24;124.35;;;50.33;;
60241;SDS011;46103;52.076;113.488;2022-12-18T16:39:29;154.07;;;63.20;;
60241;SDS011;46103;52.076;113.488;2022-12-18T16:42:38;218.35;;;88.60;;
60241;SDS011;46103;52.076;113.488;2022-12-18T16:45:45;291.70;;;120.25;;
60241;SDS011;46103;52.076;113.488;2022-12-18T16:48:51;203.90;;;100.00;;
60241;SDS011;46103;52.076;113.488;2022-12-18T16:51:57;289.95;;;111.97;;
60241;SDS011;46103;52.076;113.488;2022-12-18T16:55:03;213.05;;;82.68;;
60241;SDS011;46103;52.076;113.488;2022-12-18T16:58:07;165.75;;;63.47;;
60241;SDS011;46103;52.076;113.488;2022-12-18T17:01:11;158.93;;;56.05;;
60241;SDS011;46103;52.076;113.488;2022-12-18T17:04:15;217.00;;;88.70;;
60241;SDS011;46103;52.076;113.488;2022-12-18T17:07:19;277.85;;;91.32;;
60241;SDS011;46103;52.076;113.488;2022-12-18T17:10:24;183.30;;;78.43;;
60241;SDS011;46103;52.076;113.488;2022-12-18T17:13:31;231.10;;;93.90;;
60241;SDS011;46103;52.076;113.488;2022-12-18T17:16:37;229.82;;;98.53;;
60241;SDS011;46103;52.076;113.488;2022-12-18T17:19:43;225.87;;;90.30;;
60241;SDS011;46103;52.076;113.488;2022-12-18T17:22:47;226.52;;;89.82;;
60241;SDS011;46103;52.076;113.488;2022-12-18T17:25:55;265.63;;;95.00;;
60241;SDS011;46103;52.076;113.488;2022-12-18T17:29:01;198.80;;;74.95;;
60241;SDS011;46103;52.076;113.488;2022-12-18T17:32:06;188.07;;;83.07;;
60241;SDS011;46103;52.076;113.488;2022-12-18T17:35:11;136.20;;;52.83;;
60241;SDS011;46103;52.076;113.488;2022-12-18T17:38:15;172.90;;;68.32;;
60241;SDS011;46103;52.076;113.488;2022-12-18T17:41:19;131.93;;;60.28;;
60241;SDS011;46103;52.076;113.488;2022-12-18T17:44:24;139.38;;;58.03;;
60241;SDS011;46103;52.076;113.488;2022-12-18T17:47:28;111.53;;;53.63;;
60241;SDS011;46103;52.076;113.488;2022-12-18T17:50:33;125.78;;;57.22;;
60241;SDS011;46103;52.076;113.488;2022-12-18T17:53:37;146.80;;;58.08;;
60241;SDS011;46103;52.076;113.488;2022-12-18T17:56:44;101.28;;;59.28;;
60241;SDS011;46103;52.076;113.488;2022-12-18T17:59:49;131.68;;;49.33;;
60241;SDS011;46103;52.076;113.488;2022-12-18T18:02:55;133.57;;;60.67;;
60241;SDS011;46103;52.076;113.488;2022-12-18T18:06:02;112.03;;;51.75;;
60241;SDS011;46103;52.076;113.488;2022-12-18T18:09:07;85.50;;;34.88;;
60241;SDS011;46103;52.076;113.488;2022-12-18T18:12:18;128.57;;;54.85;;
60241;SDS011;46103;52.076;113.488;2022-12-18T18:15:41;139.93;;;58.75;;
60241;SDS011;46103;52.076;113.488;2022-12-18T18:18:46;164.80;;;65.88;;
60241;SDS011;46103;52.076;113.488;2022-12-18T18:21:51;210.30;;;78.78;;
60241;SDS011;46103;52.076;113.488;2022-12-18T18:24:57;161.40;;;68.97;;
60241;SDS011;46103;52.076;113.488;2022-12-18T18:28:02;158.45;;;70.72;;
60241;SDS011;46103;52.076;113.488;2022-12-18T18:31:08;271.50;;;83.10;;
60241;SDS011;46103;52.076;113.488;2022-12-18T18:34:15;150.20;;;69.90;;
60241;SDS011;46103;52.076;113.488;2022-12-18T18:37:20;155.55;;;66.95;;
60241;SDS011;46103;52.076;113.488;2022-12-18T18:40:24;186.98;;;76.40;;
60241;SDS011;46103;52.076;113.488;2022-12-18T18:43:30;147.63;;;63.23;;
60241;SDS011;46103;52.076;113.488;2022-12-18T18:46:36;103.93;;;50.22;;
60241;SDS011;46103;52.076;113.488;2022-12-18T18:49:41;147.77;;;58.00;;
60241;SDS011;46103;52.076;113.488;2022-12-18T18:52:48;76.93;;;42.25;;
60241;SDS011;46103;52.076;113.488;2022-12-18T18:55:57;143.88;;;58.67;;
60241;SDS011;46103;52.076;113.488;2022-12-18T18:59:25;109.03;;;53.33;;
60241;SDS011;46103;52.076;113.488;2022-12-18T19:02:33;115.57;;;54.40;;
60241;SDS011;46103;52.076;113.488;2022-12-18T19:05:38;136.88;;;54.15;;
60241;SDS011;46103;52.076;113.488;2022-12-18T19:08:49;105.55;;;46.05;;
60241;SDS011;46103;52.076;113.488;2022-12-18T19:11:56;141.93;;;54.70;;
60241;SDS011;46103;52.076;113.488;2022-12-18T19:15:19;178.60;;;63.03;;
60241;SDS011;46103;52.076;113.488;2022-12-18T19:18:25;141.48;;;57.08;;
60241;SDS011;46103;52.076;113.488;2022-12-18T19:21:29;150.25;;;61.75;;
60241;SDS011;46103;52.076;113.488;2022-12-18T19:24:36;172.52;;;67.07;;
60241;SDS011;46103;52.076;113.488;2022-12-18T19:27:42;154.40;;;58.05;;